sensor_id;sensor_type;location;lat;lon;timestamp;temperature;humidity
41838;DHT22;27511;52.042;5.178;2022-10-16T00:00:29;16.50;99.90
41838;DHT22;27511;52.042;5.178;2022-10-16T00:02:55;16.50;99.90
41838;DHT22;27511;52.042;5.178;2022-10-16T00:05:20;16.50;99.90
41838;DHT22;27511;52.042;5.178;2022-10-16T00:07:46;16.60;99.90
41838;DHT22;27511;52.042;5.178;2022-10-16T00:10:11;16.50;99.90
41838;DHT22;27511;52.042;5.178;2022-10-16T00:12:37;16.50;99.90
41838;DHT22;27511;52.042;5.178;2022-10-16T00:15:02;16.50;99.90
41838;DHT22;27511;52.042;5.178;2022-10-16T00:17:29;16.50;99.90
41838;DHT22;27511;52.042;5.178;2022-10-16T00:19:54;16.60;99.90
41838;DHT22;27511;52.042;5.178;2022-10-16T00:22:20;16.60;99.90
41838;DHT22;27511;52.042;5.178;2022-10-16T00:24:45;16.50;99.90
41838;DHT22;27511;52.042;5.178;2022-10-16T00:27:10;16.50;99.90
41838;DHT22;27511;52.042;5.178;2022-10-16T00:29:36;16.60;99.90
41838;DHT22;27511;52.042;5.178;2022-10-16T00:32:01;16.50;99.90
41838;DHT22;27511;52.042;5.178;2022-10-16T00:34:27;16.60;99.90
41838;DHT22;27511;52.042;5.178;2022-10-16T00:36:52;16.60;99.90
41838;DHT22;27511;52.042;5.178;2022-10-16T00:39:18;16.50;99.90
41838;DHT22;27511;52.042;5.178;2022-10-16T00:41:44;16.50;99.90
41838;DHT22;27511;52.042;5.178;2022-10-16T00:46:54;16.50;99.90
41838;DHT22;27511;52.042;5.178;2022-10-16T00:49:19;16.40;99.90
41838;DHT22;27511;52.042;5.178;2022-10-16T00:51:47;16.50;99.90
41838;DHT22;27511;52.042;5.178;2022-10-16T00:54:13;16.60;99.90
41838;DHT22;27511;52.042;5.178;2022-10-16T00:56:40;16.70;99.90
41838;DHT22;27511;52.042;5.178;2022-10-16T00:59:07;16.70;99.90
41838;DHT22;27511;52.042;5.178;2022-10-16T01:01:36;16.80;99.90
41838;DHT22;27511;52.042;5.178;2022-10-16T01:04:01;16.80;99.90
41838;DHT22;27511;52.042;5.178;2022-10-16T01:06:38;16.70;99.90
41838;DHT22;27511;52.042;5.178;2022-10-16T01:09:11;16.70;99.90
41838;DHT22;27511;52.042;5.178;2022-10-16T01:17:04;16.80;99.90
41838;DHT22;27511;52.042;5.178;2022-10-16T01:19:35;16.80;99.90
41838;DHT22;27511;52.042;5.178;2022-10-16T01:22:01;16.90;99.90
41838;DHT22;27511;52.042;5.178;2022-10-16T01:24:48;16.80;99.90
41838;DHT22;27511;52.042;5.178;2022-10-16T01:27:15;16.80;99.90
41838;DHT22;27511;52.042;5.178;2022-10-16T01:34:53;16.80;99.90
41838;DHT22;27511;52.042;5.178;2022-10-16T01:38:07;16.80;99.90
41838;DHT22;27511;52.042;5.178;2022-10-16T01:40:12;16.90;99.90
41838;DHT22;27511;52.042;5.178;2022-10-16T01:42:41;16.90;99.90
41838;DHT22;27511;52.042;5.178;2022-10-16T01:45:07;16.90;99.90
41838;DHT22;27511;52.042;5.178;2022-10-16T01:47:33;16.90;99.90
41838;DHT22;27511;52.042;5.178;2022-10-16T01:50:01;16.80;99.90
41838;DHT22;27511;52.042;5.178;2022-10-16T01:52:27;16.90;99.90
41838;DHT22;27511;52.042;5.178;2022-10-16T01:54:54;16.80;99.90
41838;DHT22;27511;52.042;5.178;2022-10-16T01:57:20;16.70;99.90
41838;DHT22;27511;52.042;5.178;2022-10-16T01:59:47;16.70;99.90
41838;DHT22;27511;52.042;5.178;2022-10-16T02:02:14;16.70;99.90
41838;DHT22;27511;52.042;5.178;2022-10-16T02:04:44;16.80;99.90
41838;DHT22;27511;52.042;5.178;2022-10-16T02:07:10;16.70;99.90
41838;DHT22;27511;52.042;5.178;2022-10-16T02:09:36;16.70;99.90
41838;DHT22;27511;52.042;5.178;2022-10-16T02:12:15;16.80;99.90
41838;DHT22;27511;52.042;5.178;2022-10-16T02:14:41;16.80;99.90
41838;DHT22;27511;52.042;5.178;2022-10-16T02:17:11;16.90;99.90
41838;DHT22;27511;52.042;5.178;2022-10-16T02:19:36;16.80;99.90
41838;DHT22;27511;52.042;5.178;2022-10-16T02:22:04;16.80;99.90
41838;DHT22;27511;52.042;5.178;2022-10-16T02:27:24;16.70;99.90
41838;DHT22;27511;52.042;5.178;2022-10-16T02:29:56;16.70;99.90
41838;DHT22;27511;52.042;5.178;2022-10-16T02:32:24;16.70;99.90
41838;DHT22;27511;52.042;5.178;2022-10-16T02:34:52;16.70;99.90
41838;DHT22;27511;52.042;5.178;2022-10-16T02:37:18;16.60;99.90
41838;DHT22;27511;52.042;5.178;2022-10-16T02:39:44;16.70;99.90
41838;DHT22;27511;52.042;5.178;2022-10-16T02:42:13;16.50;99.90
41838;DHT22;27511;52.042;5.178;2022-10-16T02:44:39;16.50;99.90
41838;DHT22;27511;52.042;5.178;2022-10-16T02:47:05;16.60;99.90
41838;DHT22;27511;52.042;5.178;2022-10-16T02:49:30;16.70;99.90
41838;DHT22;27511;52.042;5.178;2022-10-16T02:51:56;16.70;99.90
41838;DHT22;27511;52.042;5.178;2022-10-16T02:54:21;16.60;99.90
41838;DHT22;27511;52.042;5.178;2022-10-16T02:56:46;16.70;99.90
41838;DHT22;27511;52.042;5.178;2022-10-16T02:59:12;16.60;99.90
41838;DHT22;27511;52.042;5.178;2022-10-16T03:01:37;16.60;99.90
41838;DHT22;27511;52.042;5.178;2022-10-16T03:04:03;16.60;99.90
41838;DHT22;27511;52.042;5.178;2022-10-16T03:06:28;16.70;99.90
41838;DHT22;27511;52.042;5.178;2022-10-16T03:08:54;16.60;99.90
41838;DHT22;27511;52.042;5.178;2022-10-16T03:11:19;16.70;99.90
41838;DHT22;27511;52.042;5.178;2022-10-16T03:13:44;16.60;99.90
41838;DHT22;27511;52.042;5.178;2022-10-16T03:16:10;16.60;99.90
41838;DHT22;27511;52.042;5.178;2022-10-16T03:18:35;16.70;99.90
41838;DHT22;27511;52.042;5.178;2022-10-16T03:21:01;16.70;99.90
41838;DHT22;27511;52.042;5.178;2022-10-16T03:23:26;16.70;99.90
41838;DHT22;27511;52.042;5.178;2022-10-16T03:25:52;16.70;99.90
41838;DHT22;27511;52.042;5.178;2022-10-16T03:28:17;16.70;99.90
41838;DHT22;27511;52.042;5.178;2022-10-16T03:30:43;16.70;99.90
41838;DHT22;27511;52.042;5.178;2022-10-16T03:33:09;16.70;99.90
41838;DHT22;27511;52.042;5.178;2022-10-16T03:35:35;16.60;99.90
41838;DHT22;27511;52.042;5.178;2022-10-16T03:38:00;16.60;99.90
41838;DHT22;27511;52.042;5.178;2022-10-16T03:40:26;16.60;99.90
41838;DHT22;27511;52.042;5.178;2022-10-16T03:42:51;16.60;99.90
41838;DHT22;27511;52.042;5.178;2022-10-16T03:45:17;16.60;99.90
41838;DHT22;27511;52.042;5.178;2022-10-16T03:47:42;16.60;99.90
41838;DHT22;27511;52.042;5.178;2022-10-16T03:50:08;16.60;99.90
41838;DHT22;27511;52.042;5.178;2022-10-16T03:52:34;16.60;99.90
41838;DHT22;27511;52.042;5.178;2022-10-16T03:54:59;16.60;99.90
41838;DHT22;27511;52.042;5.178;2022-10-16T03:57:25;16.70;99.90
41838;DHT22;27511;52.042;5.178;2022-10-16T03:59:50;16.60;99.90
41838;DHT22;27511;52.042;5.178;2022-10-16T04:02:16;16.60;99.90
41838;DHT22;27511;52.042;5.178;2022-10-16T04:04:41;16.50;99.90
41838;DHT22;27511;52.042;5.178;2022-10-16T04:07:07;16.60;99.90
41838;DHT22;27511;52.042;5.178;2022-10-16T04:09:32;16.50;99.90
41838;DHT22;27511;52.042;5.178;2022-10-16T04:11:57;16.50;99.90
41838;DHT22;27511;52.042;5.178;2022-10-16T04:14:23;16.50;99.90
41838;DHT22;27511;52.042;5.178;2022-10-16T04:16:48;16.50;99.90
41838;DHT22;27511;52.042;5.178;2022-10-16T04:19:14;16.40;99.90
41838;DHT22;27511;52.042;5.178;2022-10-16T04:21:39;16.50;99.90
41838;DHT22;27511;52.042;5.178;2022-10-16T04:24:05;16.50;99.90
41838;DHT22;27511;52.042;5.178;2022-10-16T04:26:30;16.50;99.90
41838;DHT22;27511;52.042;5.178;2022-10-16T04:28:55;16.50;99.90
41838;DHT22;27511;52.042;5.178;2022-10-16T04:31:21;16.50;99.90
41838;DHT22;27511;52.042;5.178;2022-10-16T04:33:47;16.40;99.90
41838;DHT22;27511;52.042;5.178;2022-10-16T04:36:12;16.50;99.90
41838;DHT22;27511;52.042;5.178;2022-10-16T04:38:38;16.40;99.90
41838;DHT22;27511;52.042;5.178;2022-10-16T04:41:05;16.40;99.90
41838;DHT22;27511;52.042;5.178;2022-10-16T04:43:30;16.50;99.90
41838;DHT22;27511;52.042;5.178;2022-10-16T04:45:56;16.40;99.90
41838;DHT22;27511;52.042;5.178;2022-10-16T04:48:21;16.50;99.90
41838;DHT22;27511;52.042;5.178;2022-10-16T04:50:47;16.50;99.90
41838;DHT22;27511;52.042;5.178;2022-10-16T04:53:12;16.40;99.90
41838;DHT22;27511;52.042;5.178;2022-10-16T04:55:38;16.30;99.90
41838;DHT22;27511;52.042;5.178;2022-10-16T04:58:03;16.20;99.90
41838;DHT22;27511;52.042;5.178;2022-10-16T05:00:29;16.30;99.90
41838;DHT22;27511;52.042;5.178;2022-10-16T05:02:54;16.30;99.90
41838;DHT22;27511;52.042;5.178;2022-10-16T05:05:20;16.20;99.90
41838;DHT22;27511;52.042;5.178;2022-10-16T05:07:46;16.30;99.90
41838;DHT22;27511;52.042;5.178;2022-10-16T05:10:12;16.30;99.90
41838;DHT22;27511;52.042;5.178;2022-10-16T05:12:37;16.30;99.90
41838;DHT22;27511;52.042;5.178;2022-10-16T05:15:03;16.30;99.90
41838;DHT22;27511;52.042;5.178;2022-10-16T05:17:29;16.20;99.90
41838;DHT22;27511;52.042;5.178;2022-10-16T05:19:54;16.20;99.90
41838;DHT22;27511;52.042;5.178;2022-10-16T05:22:20;16.20;99.90
41838;DHT22;27511;52.042;5.178;2022-10-16T05:24:45;16.20;99.90
41838;DHT22;27511;52.042;5.178;2022-10-16T05:27:11;16.20;99.90
41838;DHT22;27511;52.042;5.178;2022-10-16T05:29:44;16.30;99.90
41838;DHT22;27511;52.042;5.178;2022-10-16T05:32:09;16.30;99.90
41838;DHT22;27511;52.042;5.178;2022-10-16T05:34:35;16.30;99.90
41838;DHT22;27511;52.042;5.178;2022-10-16T05:37:00;16.20;99.90
41838;DHT22;27511;52.042;5.178;2022-10-16T05:39:26;16.30;99.90
41838;DHT22;27511;52.042;5.178;2022-10-16T05:41:51;16.30;99.90
41838;DHT22;27511;52.042;5.178;2022-10-16T05:44:17;16.30;99.90
41838;DHT22;27511;52.042;5.178;2022-10-16T05:46:42;16.30;99.90
41838;DHT22;27511;52.042;5.178;2022-10-16T05:49:08;16.40;99.90
41838;DHT22;27511;52.042;5.178;2022-10-16T05:51:33;16.30;99.90
41838;DHT22;27511;52.042;5.178;2022-10-16T05:53:59;16.30;99.90
41838;DHT22;27511;52.042;5.178;2022-10-16T05:56:24;16.30;99.90
41838;DHT22;27511;52.042;5.178;2022-10-16T05:58:50;16.30;99.90
41838;DHT22;27511;52.042;5.178;2022-10-16T06:01:16;16.20;99.90
41838;DHT22;27511;52.042;5.178;2022-10-16T06:03:42;16.30;99.90
41838;DHT22;27511;52.042;5.178;2022-10-16T06:06:11;16.40;99.90
41838;DHT22;27511;52.042;5.178;2022-10-16T06:08:36;16.30;99.90
41838;DHT22;27511;52.042;5.178;2022-10-16T06:11:02;16.30;99.90
41838;DHT22;27511;52.042;5.178;2022-10-16T06:13:28;16.30;99.90
41838;DHT22;27511;52.042;5.178;2022-10-16T06:15:56;16.30;99.90
41838;DHT22;27511;52.042;5.178;2022-10-16T06:18:21;16.30;99.90
41838;DHT22;27511;52.042;5.178;2022-10-16T06:20:47;16.40;99.90
41838;DHT22;27511;52.042;5.178;2022-10-16T06:23:12;16.40;99.90
41838;DHT22;27511;52.042;5.178;2022-10-16T06:25:38;16.40;99.90
41838;DHT22;27511;52.042;5.178;2022-10-16T06:28:03;16.40;99.90
41838;DHT22;27511;52.042;5.178;2022-10-16T06:30:29;16.30;99.90
41838;DHT22;27511;52.042;5.178;2022-10-16T06:32:54;16.40;99.90
41838;DHT22;27511;52.042;5.178;2022-10-16T06:35:20;16.30;99.90
41838;DHT22;27511;52.042;5.178;2022-10-16T06:37:45;16.40;99.90
41838;DHT22;27511;52.042;5.178;2022-10-16T06:40:11;16.40;99.90
41838;DHT22;27511;52.042;5.178;2022-10-16T06:42:36;16.40;99.90
41838;DHT22;27511;52.042;5.178;2022-10-16T06:45:02;16.40;99.90
41838;DHT22;27511;52.042;5.178;2022-10-16T06:47:27;16.50;99.90
41838;DHT22;27511;52.042;5.178;2022-10-16T06:49:53;16.50;99.90
41838;DHT22;27511;52.042;5.178;2022-10-16T06:52:18;16.40;99.90
41838;DHT22;27511;52.042;5.178;2022-10-16T06:54:43;16.40;99.90
41838;DHT22;27511;52.042;5.178;2022-10-16T06:57:09;16.50;99.90
41838;DHT22;27511;52.042;5.178;2022-10-16T06:59:34;16.50;99.90
41838;DHT22;27511;52.042;5.178;2022-10-16T07:02:00;16.50;99.90
41838;DHT22;27511;52.042;5.178;2022-10-16T07:04:25;16.50;99.90
41838;DHT22;27511;52.042;5.178;2022-10-16T07:06:51;16.50;99.90
41838;DHT22;27511;52.042;5.178;2022-10-16T07:09:16;16.50;99.90
41838;DHT22;27511;52.042;5.178;2022-10-16T07:11:42;16.40;99.90
41838;DHT22;27511;52.042;5.178;2022-10-16T07:14:17;16.50;99.90
41838;DHT22;27511;52.042;5.178;2022-10-16T07:16:43;16.40;99.90
41838;DHT22;27511;52.042;5.178;2022-10-16T07:19:08;16.30;99.90
41838;DHT22;27511;52.042;5.178;2022-10-16T07:21:34;16.40;99.90
41838;DHT22;27511;52.042;5.178;2022-10-16T07:24:00;16.30;99.90
41838;DHT22;27511;52.042;5.178;2022-10-16T07:26:27;16.40;99.90
41838;DHT22;27511;52.042;5.178;2022-10-16T07:28:53;16.50;99.90
41838;DHT22;27511;52.042;5.178;2022-10-16T07:31:19;16.50;99.90
41838;DHT22;27511;52.042;5.178;2022-10-16T07:33:46;16.60;99.90
41838;DHT22;27511;52.042;5.178;2022-10-16T07:36:13;16.70;99.90
41838;DHT22;27511;52.042;5.178;2022-10-16T07:38:39;16.50;99.90
41838;DHT22;27511;52.042;5.178;2022-10-16T07:41:08;16.50;99.90
41838;DHT22;27511;52.042;5.178;2022-10-16T07:43:34;16.50;99.90
41838;DHT22;27511;52.042;5.178;2022-10-16T07:45:59;16.70;99.90
41838;DHT22;27511;52.042;5.178;2022-10-16T07:48:29;16.70;99.90
41838;DHT22;27511;52.042;5.178;2022-10-16T07:50:58;16.70;99.90
41838;DHT22;27511;52.042;5.178;2022-10-16T07:53:24;16.60;99.90
41838;DHT22;27511;52.042;5.178;2022-10-16T07:55:50;16.70;99.90
41838;DHT22;27511;52.042;5.178;2022-10-16T07:58:15;16.50;99.90
41838;DHT22;27511;52.042;5.178;2022-10-16T08:00:40;16.60;99.90
41838;DHT22;27511;52.042;5.178;2022-10-16T08:03:06;16.50;99.90
41838;DHT22;27511;52.042;5.178;2022-10-16T08:05:32;16.60;99.90
41838;DHT22;27511;52.042;5.178;2022-10-16T08:07:57;16.50;99.90
41838;DHT22;27511;52.042;5.178;2022-10-16T08:10:24;16.60;99.90
41838;DHT22;27511;52.042;5.178;2022-10-16T08:12:50;16.60;99.90
41838;DHT22;27511;52.042;5.178;2022-10-16T08:15:15;16.60;99.90
41838;DHT22;27511;52.042;5.178;2022-10-16T08:17:41;16.60;99.90
41838;DHT22;27511;52.042;5.178;2022-10-16T08:20:06;16.60;99.90
41838;DHT22;27511;52.042;5.178;2022-10-16T08:22:32;16.80;99.90
41838;DHT22;27511;52.042;5.178;2022-10-16T08:24:57;16.60;99.90
41838;DHT22;27511;52.042;5.178;2022-10-16T08:27:23;16.60;99.90
41838;DHT22;27511;52.042;5.178;2022-10-16T08:29:48;16.80;99.90
41838;DHT22;27511;52.042;5.178;2022-10-16T08:32:14;16.70;99.90
41838;DHT22;27511;52.042;5.178;2022-10-16T08:34:39;16.70;99.90
41838;DHT22;27511;52.042;5.178;2022-10-16T08:37:05;16.90;99.90
41838;DHT22;27511;52.042;5.178;2022-10-16T08:39:32;16.70;99.90
41838;DHT22;27511;52.042;5.178;2022-10-16T08:44:40;17.00;99.90
41838;DHT22;27511;52.042;5.178;2022-10-16T08:47:19;17.00;99.90
41838;DHT22;27511;52.042;5.178;2022-10-16T08:49:59;17.10;99.90
41838;DHT22;27511;52.042;5.178;2022-10-16T08:52:28;17.10;99.90
41838;DHT22;27511;52.042;5.178;2022-10-16T08:54:54;17.30;99.90
41838;DHT22;27511;52.042;5.178;2022-10-16T08:57:21;17.10;99.90
41838;DHT22;27511;52.042;5.178;2022-10-16T08:59:46;17.20;99.90
41838;DHT22;27511;52.042;5.178;2022-10-16T09:02:18;17.30;99.90
41838;DHT22;27511;52.042;5.178;2022-10-16T09:07:17;17.40;99.90
41838;DHT22;27511;52.042;5.178;2022-10-16T09:17:46;17.40;99.90
41838;DHT22;27511;52.042;5.178;2022-10-16T09:20:30;17.50;99.90
41838;DHT22;27511;52.042;5.178;2022-10-16T09:23:17;17.30;99.90
41838;DHT22;27511;52.042;5.178;2022-10-16T09:25:43;17.50;99.90
41838;DHT22;27511;52.042;5.178;2022-10-16T09:28:09;17.70;99.90
41838;DHT22;27511;52.042;5.178;2022-10-16T09:30:35;17.60;99.90
41838;DHT22;27511;52.042;5.178;2022-10-16T09:33:02;17.70;99.90
41838;DHT22;27511;52.042;5.178;2022-10-16T09:35:31;17.60;99.90
41838;DHT22;27511;52.042;5.178;2022-10-16T09:37:58;17.70;99.90
41838;DHT22;27511;52.042;5.178;2022-10-16T09:40:27;17.80;99.90
41838;DHT22;27511;52.042;5.178;2022-10-16T09:42:56;17.90;99.90
41838;DHT22;27511;52.042;5.178;2022-10-16T09:45:23;17.90;99.90
41838;DHT22;27511;52.042;5.178;2022-10-16T09:47:48;18.00;99.90
41838;DHT22;27511;52.042;5.178;2022-10-16T09:50:27;18.00;99.90
41838;DHT22;27511;52.042;5.178;2022-10-16T09:53:03;18.00;99.90
41838;DHT22;27511;52.042;5.178;2022-10-16T09:55:29;17.90;99.90
41838;DHT22;27511;52.042;5.178;2022-10-16T09:57:55;17.80;99.90
41838;DHT22;27511;52.042;5.178;2022-10-16T10:00:21;17.90;99.90
41838;DHT22;27511;52.042;5.178;2022-10-16T10:02:47;18.00;99.90
41838;DHT22;27511;52.042;5.178;2022-10-16T10:05:23;18.20;99.90
41838;DHT22;27511;52.042;5.178;2022-10-16T10:07:54;18.30;99.90
41838;DHT22;27511;52.042;5.178;2022-10-16T10:10:21;18.40;99.90
41838;DHT22;27511;52.042;5.178;2022-10-16T10:12:46;18.30;99.90
41838;DHT22;27511;52.042;5.178;2022-10-16T10:15:12;18.40;99.90
41838;DHT22;27511;52.042;5.178;2022-10-16T10:17:45;18.40;99.90
41838;DHT22;27511;52.042;5.178;2022-10-16T10:20:15;18.40;99.90
41838;DHT22;27511;52.042;5.178;2022-10-16T10:22:46;18.50;99.90
41838;DHT22;27511;52.042;5.178;2022-10-16T10:25:14;18.40;99.90
41838;DHT22;27511;52.042;5.178;2022-10-16T10:27:47;18.40;99.90
41838;DHT22;27511;52.042;5.178;2022-10-16T10:30:24;18.60;99.90
41838;DHT22;27511;52.042;5.178;2022-10-16T10:32:55;18.70;99.90
41838;DHT22;27511;52.042;5.178;2022-10-16T10:40:49;18.70;99.90
41838;DHT22;27511;52.042;5.178;2022-10-16T10:45:58;18.70;99.90
41838;DHT22;27511;52.042;5.178;2022-10-16T10:56:16;18.60;99.90
41838;DHT22;27511;52.042;5.178;2022-10-16T11:01:08;19.00;99.90
41838;DHT22;27511;52.042;5.178;2022-10-16T11:06:06;19.30;99.90
41838;DHT22;27511;52.042;5.178;2022-10-16T11:08:37;19.20;99.90
41838;DHT22;27511;52.042;5.178;2022-10-16T11:13:35;19.10;99.90
41838;DHT22;27511;52.042;5.178;2022-10-16T11:16:06;19.20;99.90
41838;DHT22;27511;52.042;5.178;2022-10-16T11:18:40;19.10;99.90
41838;DHT22;27511;52.042;5.178;2022-10-16T11:21:08;19.20;99.90
41838;DHT22;27511;52.042;5.178;2022-10-16T11:23:55;19.20;99.90
41838;DHT22;27511;52.042;5.178;2022-10-16T11:26:25;19.30;99.90
41838;DHT22;27511;52.042;5.178;2022-10-16T11:28:52;19.30;99.90
41838;DHT22;27511;52.042;5.178;2022-10-16T11:34:09;19.20;99.90
41838;DHT22;27511;52.042;5.178;2022-10-16T11:36:45;19.30;99.90
41838;DHT22;27511;52.042;5.178;2022-10-16T11:41:53;19.30;99.90
41838;DHT22;27511;52.042;5.178;2022-10-16T11:44:27;19.30;99.90
41838;DHT22;27511;52.042;5.178;2022-10-16T11:49:30;19.40;99.90
41838;DHT22;27511;52.042;5.178;2022-10-16T11:52:07;19.50;99.90
41838;DHT22;27511;52.042;5.178;2022-10-16T11:54:45;19.70;99.90
41838;DHT22;27511;52.042;5.178;2022-10-16T11:57:29;19.80;99.90
41838;DHT22;27511;52.042;5.178;2022-10-16T12:00:02;19.70;99.90
41838;DHT22;27511;52.042;5.178;2022-10-16T12:05:01;19.80;99.90
41838;DHT22;27511;52.042;5.178;2022-10-16T12:07:32;19.80;99.90
41838;DHT22;27511;52.042;5.178;2022-10-16T12:10:09;19.90;99.90
41838;DHT22;27511;52.042;5.178;2022-10-16T12:17:35;20.20;99.90
41838;DHT22;27511;52.042;5.178;2022-10-16T12:20:18;20.20;99.90
41838;DHT22;27511;52.042;5.178;2022-10-16T12:22:49;20.20;99.90
41838;DHT22;27511;52.042;5.178;2022-10-16T12:28:06;20.20;99.90
41838;DHT22;27511;52.042;5.178;2022-10-16T12:30:41;20.30;99.90
41838;DHT22;27511;52.042;5.178;2022-10-16T12:35:43;20.50;99.90
41838;DHT22;27511;52.042;5.178;2022-10-16T12:38:14;20.70;99.90
41838;DHT22;27511;52.042;5.178;2022-10-16T12:40:41;20.90;99.90
41838;DHT22;27511;52.042;5.178;2022-10-16T12:43:49;21.20;99.90
41838;DHT22;27511;52.042;5.178;2022-10-16T12:46:38;21.60;99.90
41838;DHT22;27511;52.042;5.178;2022-10-16T12:48:45;21.90;99.90
41838;DHT22;27511;52.042;5.178;2022-10-16T12:51:25;22.20;99.90
41838;DHT22;27511;52.042;5.178;2022-10-16T12:56:36;22.30;99.90
41838;DHT22;27511;52.042;5.178;2022-10-16T13:02:08;22.70;99.90
41838;DHT22;27511;52.042;5.178;2022-10-16T13:04:43;23.30;99.90
41838;DHT22;27511;52.042;5.178;2022-10-16T13:09:54;23.40;99.90
41838;DHT22;27511;52.042;5.178;2022-10-16T13:12:29;23.50;99.90
41838;DHT22;27511;52.042;5.178;2022-10-16T13:15:04;23.60;99.90
41838;DHT22;27511;52.042;5.178;2022-10-16T13:23:05;24.00;99.90
41838;DHT22;27511;52.042;5.178;2022-10-16T13:30:25;23.50;99.90
41838;DHT22;27511;52.042;5.178;2022-10-16T13:32:58;23.20;99.90
41838;DHT22;27511;52.042;5.178;2022-10-16T13:35:25;23.30;99.90
41838;DHT22;27511;52.042;5.178;2022-10-16T13:37:50;23.30;99.90
41838;DHT22;27511;52.042;5.178;2022-10-16T13:40:21;23.20;99.90
41838;DHT22;27511;52.042;5.178;2022-10-16T13:42:47;23.10;99.90
41838;DHT22;27511;52.042;5.178;2022-10-16T13:45:19;23.10;99.90
41838;DHT22;27511;52.042;5.178;2022-10-16T13:47:45;23.10;99.90
41838;DHT22;27511;52.042;5.178;2022-10-16T13:50:11;22.90;99.90
41838;DHT22;27511;52.042;5.178;2022-10-16T13:52:37;22.90;99.90
41838;DHT22;27511;52.042;5.178;2022-10-16T13:55:04;22.80;99.90
41838;DHT22;27511;52.042;5.178;2022-10-16T13:57:30;22.70;99.90
41838;DHT22;27511;52.042;5.178;2022-10-16T13:59:55;22.60;99.90
41838;DHT22;27511;52.042;5.178;2022-10-16T14:04:46;22.50;99.90
41838;DHT22;27511;52.042;5.178;2022-10-16T14:07:18;22.50;99.90
41838;DHT22;27511;52.042;5.178;2022-10-16T14:09:47;22.40;99.90
41838;DHT22;27511;52.042;5.178;2022-10-16T14:12:13;22.40;99.90
41838;DHT22;27511;52.042;5.178;2022-10-16T14:14:42;22.30;99.90
41838;DHT22;27511;52.042;5.178;2022-10-16T14:17:27;22.20;99.90
41838;DHT22;27511;52.042;5.178;2022-10-16T14:19:54;22.10;99.90
41838;DHT22;27511;52.042;5.178;2022-10-16T14:22:33;22.00;99.90
41838;DHT22;27511;52.042;5.178;2022-10-16T14:24:59;21.90;99.90
41838;DHT22;27511;52.042;5.178;2022-10-16T14:27:30;21.70;99.90
41838;DHT22;27511;52.042;5.178;2022-10-16T14:32:33;21.80;99.90
41838;DHT22;27511;52.042;5.178;2022-10-16T14:34:59;21.80;99.90
41838;DHT22;27511;52.042;5.178;2022-10-16T14:37:25;21.70;99.90
41838;DHT22;27511;52.042;5.178;2022-10-16T14:39:51;21.80;99.90
41838;DHT22;27511;52.042;5.178;2022-10-16T14:42:18;21.60;99.90
41838;DHT22;27511;52.042;5.178;2022-10-16T14:44:44;21.70;99.90
41838;DHT22;27511;52.042;5.178;2022-10-16T14:47:14;21.70;99.90
41838;DHT22;27511;52.042;5.178;2022-10-16T14:49:41;21.70;99.90
41838;DHT22;27511;52.042;5.178;2022-10-16T14:52:11;21.60;99.90
41838;DHT22;27511;52.042;5.178;2022-10-16T14:54:36;21.70;99.90
41838;DHT22;27511;52.042;5.178;2022-10-16T14:57:02;21.70;99.90
41838;DHT22;27511;52.042;5.178;2022-10-16T14:59:28;21.60;99.90
41838;DHT22;27511;52.042;5.178;2022-10-16T15:01:55;21.60;99.90
41838;DHT22;27511;52.042;5.178;2022-10-16T15:04:20;21.50;99.90
41838;DHT22;27511;52.042;5.178;2022-10-16T15:06:46;21.30;99.90
41838;DHT22;27511;52.042;5.178;2022-10-16T15:09:11;21.30;99.90
41838;DHT22;27511;52.042;5.178;2022-10-16T15:11:37;21.30;99.90
41838;DHT22;27511;52.042;5.178;2022-10-16T15:14:02;21.30;99.90
41838;DHT22;27511;52.042;5.178;2022-10-16T15:16:28;21.20;99.90
41838;DHT22;27511;52.042;5.178;2022-10-16T15:18:54;21.30;99.90
41838;DHT22;27511;52.042;5.178;2022-10-16T15:23:48;21.20;99.90
41838;DHT22;27511;52.042;5.178;2022-10-16T15:26:14;21.10;99.90
41838;DHT22;27511;52.042;5.178;2022-10-16T15:28:39;21.10;99.90
41838;DHT22;27511;52.042;5.178;2022-10-16T15:31:04;21.00;99.90
41838;DHT22;27511;52.042;5.178;2022-10-16T15:33:30;20.90;99.90
41838;DHT22;27511;52.042;5.178;2022-10-16T15:35:59;20.80;99.90
41838;DHT22;27511;52.042;5.178;2022-10-16T15:38:25;20.80;99.90
41838;DHT22;27511;52.042;5.178;2022-10-16T15:40:51;20.70;99.90
41838;DHT22;27511;52.042;5.178;2022-10-16T15:43:17;20.60;99.90
41838;DHT22;27511;52.042;5.178;2022-10-16T15:45:44;20.40;99.90
41838;DHT22;27511;52.042;5.178;2022-10-16T15:48:12;20.40;99.90
41838;DHT22;27511;52.042;5.178;2022-10-16T15:50:39;20.30;99.90
41838;DHT22;27511;52.042;5.178;2022-10-16T15:53:04;20.30;99.90
41838;DHT22;27511;52.042;5.178;2022-10-16T15:55:30;20.10;99.90
41838;DHT22;27511;52.042;5.178;2022-10-16T15:57:55;20.10;99.90
41838;DHT22;27511;52.042;5.178;2022-10-16T16:00:21;20.00;99.90
41838;DHT22;27511;52.042;5.178;2022-10-16T16:02:50;19.90;99.90
41838;DHT22;27511;52.042;5.178;2022-10-16T16:05:17;19.80;99.90
41838;DHT22;27511;52.042;5.178;2022-10-16T16:07:42;19.80;99.90
41838;DHT22;27511;52.042;5.178;2022-10-16T16:10:08;19.70;99.90
41838;DHT22;27511;52.042;5.178;2022-10-16T16:12:34;19.70;99.90
41838;DHT22;27511;52.042;5.178;2022-10-16T16:15:00;19.70;99.90
41838;DHT22;27511;52.042;5.178;2022-10-16T16:17:25;19.60;99.90
41838;DHT22;27511;52.042;5.178;2022-10-16T16:19:51;19.60;99.90
41838;DHT22;27511;52.042;5.178;2022-10-16T16:22:17;19.50;99.90
41838;DHT22;27511;52.042;5.178;2022-10-16T16:24:42;19.50;99.90
41838;DHT22;27511;52.042;5.178;2022-10-16T16:27:08;19.40;99.90
41838;DHT22;27511;52.042;5.178;2022-10-16T16:29:33;19.30;99.90
41838;DHT22;27511;52.042;5.178;2022-10-16T16:31:59;19.30;99.90
41838;DHT22;27511;52.042;5.178;2022-10-16T16:34:26;19.30;99.90
41838;DHT22;27511;52.042;5.178;2022-10-16T16:36:51;19.30;99.90
41838;DHT22;27511;52.042;5.178;2022-10-16T16:39:17;19.30;99.90
41838;DHT22;27511;52.042;5.178;2022-10-16T16:41:42;19.30;99.90
41838;DHT22;27511;52.042;5.178;2022-10-16T16:44:10;19.20;99.90
41838;DHT22;27511;52.042;5.178;2022-10-16T16:46:35;19.10;99.90
41838;DHT22;27511;52.042;5.178;2022-10-16T16:49:01;19.00;99.90
41838;DHT22;27511;52.042;5.178;2022-10-16T16:51:27;19.00;99.90
41838;DHT22;27511;52.042;5.178;2022-10-16T16:53:53;19.10;99.90
41838;DHT22;27511;52.042;5.178;2022-10-16T16:56:19;19.00;99.90
41838;DHT22;27511;52.042;5.178;2022-10-16T16:58:45;18.90;99.90
41838;DHT22;27511;52.042;5.178;2022-10-16T17:01:11;18.90;99.90
41838;DHT22;27511;52.042;5.178;2022-10-16T17:03:37;18.90;99.90
41838;DHT22;27511;52.042;5.178;2022-10-16T17:06:03;18.80;99.90
41838;DHT22;27511;52.042;5.178;2022-10-16T17:08:29;18.80;99.90
41838;DHT22;27511;52.042;5.178;2022-10-16T17:10:55;18.80;99.90